Latest Weather Observations for Penrith

IDN60901

Issued at 10:21 pm EST Friday 27 May 2016 (issued every 10 minutes, with the page automatically refreshed every 10 minutes)

About weather observations | Map of Sydney area stations | Latest observations for Sydney area | Other Formats
Station Details ID: 067113 Name: PENRITH LAKES AWS Lat: -33.72 Lon: 150.68 Height: 24.7 m
Data from the previous 72 hours. | See also: Recent months at Penrith
Date/Time
EST
Tmp

°C
App
Tmp
°C
Dew
Point
°C
Rel
Hum
%
Delta-T

°C
Wind Press
QNH
hPa
Press
MSL
hPa
Rain
since
9 am
mm
Dir
 
Spd
km/h
Gust
km/h
Spd
kts
Gust
kts
27/10:00pm 12.8 - - - - SW 4 13 2 7 - - 0.0
27/09:30pm 12.9 - - - - W 7 13 4 7 - - 0.0
27/09:00pm 13.4 - - - - NNW 6 13 3 7 - - 0.0
27/08:30pm 12.9 - - - - NNE 6 9 3 5 - - 0.0
27/08:00pm 12.8 - - - - WSW 4 9 2 5 - - 0.0
27/07:30pm 13.7 - - - - W 7 15 4 8 - - 0.0
27/07:00pm 14.1 - - - - WSW 11 24 6 13 - - 0.0
27/06:30pm 14.5 - - - - WSW 17 24 9 13 - - 0.0
27/06:00pm 14.8 - - - - W 28 44 15 24 - - 0.0
27/05:30pm 15.1 - - - - W 26 44 14 24 - - 0.0
27/05:00pm 15.3 - - - - W 24 37 13 20 - - 0.0
27/04:30pm 16.1 - - - - W 20 33 11 18 - - 0.0
27/04:00pm 16.7 - - - - W 22 33 12 18 - - 0.0
27/03:30pm 17.1 - - - - W 22 35 12 19 - - 0.0
27/03:00pm 17.2 - - - - W 30 48 16 26 - - 0.0
27/02:30pm 17.4 - - - - W 30 44 16 24 - - 0.0
27/02:03pm 17.8 - - - - W 30 50 16 27 - - 0.0
27/02:00pm 17.8 - - - - W 28 41 15 22 - - 0.0
27/01:35pm 17.7 - - - - WSW 30 50 16 27 - - 0.0
27/01:30pm 18.0 - - - - WSW 28 43 15 23 - - 0.0
27/01:07pm 17.8 - - - - WSW 28 50 15 27 - - 0.0
27/01:00pm 18.2 - - - - WSW 26 46 14 25 - - 0.0
27/12:57pm 18.0 - - - - W 30 48 16 26 - - 0.0
27/12:30pm 18.2 - - - - W 24 37 13 20 - - 0.0
27/12:00pm 18.3 - - - - W 22 32 12 17 - - 0.0
27/11:30am 18.0 - - - - W 19 32 10 17 - - 0.0
27/11:00am 18.0 - - - - WSW 13 24 7 13 - - 0.0
27/10:30am 17.7 - - - - SW 4 11 2 6 - - 0.0
27/10:00am 17.1 - - - - CALM 0 6 0 3 - - 0.0
27/09:30am 16.3 - - - - SSE 6 9 3 5 - - 0.0
27/09:00am 15.8 - - - - WNW 13 24 7 13 - - 0.0
27/08:30am 14.8 - - - - ESE 6 7 3 4 - - 0.0
27/08:00am 13.6 - - - - E 9 11 5 6 - - 0.0
27/07:30am 12.5 - - - - ENE 4 9 2 5 - - 0.0
27/07:00am 12.5 - - - - WSW 2 6 1 3 - - 0.0
27/06:30am 13.1 - - - - WSW 9 15 5 8 - - 0.0
27/06:00am 13.9 - - - - W 15 28 8 15 - - 0.0
27/05:30am 14.3 - - - - W 17 28 9 15 - - 0.0
27/05:00am 14.6 - - - - WSW 20 48 11 26 - - 0.0
27/04:30am 13.2 - - - - SSW 6 9 3 5 - - 0.0
27/04:00am 14.0 - - - - SW 7 17 4 9 - - 0.0
27/03:30am 14.5 - - - - W 17 30 9 16 - - 0.0
27/03:00am 14.7 - - - - W 11 24 6 13 - - 0.0
27/02:30am 14.7 - - - - SW 9 15 5 8 - - 0.0
27/02:00am 14.5 - - - - W 9 19 5 10 - - 0.0
27/01:30am 14.9 - - - - W 6 19 3 10 - - 0.0
27/01:00am 15.4 - - - - SW 9 22 5 12 - - 0.0
27/12:30am 15.6 - - - - WNW 6 15 3 8 - - 0.0
27/12:00am 15.2 - - - - W 7 15 4 8 - - 0.0
 
Date/Time
EST
Tmp

°C
App
Tmp
°C
Dew
Point
°C
Rel
Hum
%
Delta-T

°C
Wind Press
QNH
hPa
Press
MSL
hPa
Rain
since
9 am
mm
Dir
 
Spd
km/h
Gust
km/h
Spd
kts
Gust
kts
26/11:30pm 15.7 - - - - W 11 32 6 17 - - 0.0
26/11:00pm 15.7 - - - - WNW 4 6 2 3 - - 0.0
26/10:30pm 15.9 - - - - NW 7 11 4 6 - - 0.0
26/10:00pm 15.2 - - - - W 7 11 4 6 - - 0.0
26/09:30pm 16.0 - - - - WNW 11 17 6 9 - - 0.0
26/09:00pm 16.0 - - - - NW 9 13 5 7 - - 0.0
26/08:30pm 15.8 - - - - WNW 4 7 2 4 - - 0.0
26/08:00pm 16.9 - - - - NW 4 7 2 4 - - 0.0
26/07:30pm 16.2 - - - - NW 11 17 6 9 - - 0.0
26/07:00pm 16.5 - - - - NW 15 20 8 11 - - 0.0
26/06:30pm 17.2 - - - - NW 20 28 11 15 - - 0.0
26/06:00pm 17.0 - - - - NNW 7 20 4 11 - - 0.0
26/05:30pm 17.6 - - - - SSE 7 17 4 9 - - 0.0
26/05:00pm 18.0 - - - - N 7 17 4 9 - - 0.0
26/04:30pm 18.8 - - - - WNW 13 28 7 15 - - 0.0
26/04:00pm 19.5 - - - - WNW 19 35 10 19 - - 0.0
26/03:30pm 20.3 - - - - NW 26 43 14 23 - - 0.0
26/03:00pm 20.5 - - - - WNW 17 33 9 18 - - 0.0
26/02:30pm 20.1 - - - - WNW 19 35 10 19 - - 0.0
26/02:00pm 19.4 - - - - NNW 22 37 12 20 - - 0.0
26/01:30pm 19.9 - - - - WNW 22 33 12 18 - - 0.0
26/01:00pm 19.5 - - - - WNW 11 24 6 13 - - 0.0
26/12:30pm 18.7 - - - - NNE 13 22 7 12 - - 0.0
26/12:00pm 17.9 - - - - NNE 7 9 4 5 - - 0.0
26/11:30am 15.5 - - - - N 4 6 2 3 - - 0.0
26/11:00am 14.5 - - - - N 4 6 2 3 - - 0.0
26/10:30am 14.4 - - - - N 6 7 3 4 - - 0.0
26/10:00am 14.4 - - - - NNE 2 4 1 2 - - 0.0
26/09:30am 14.1 - - - - WNW 4 6 2 3 - - 0.0
26/09:00am 13.8 - - - - CALM 0 0 0 0 - - 0.0
26/08:30am 12.3 - - - - NE 4 7 2 4 - - 0.0
26/08:00am 11.9 - - - - CALM 0 0 0 0 - - 0.0
26/07:30am 11.4 - - - - WNW 4 4 2 2 - - 0.0
26/07:00am 11.3 - - - - NNE 4 7 2 4 - - 0.0
26/06:30am 11.9 - - - - CALM 0 4 0 2 - - 0.0
26/06:00am 11.9 - - - - WSW 2 7 1 4 - - 0.0
26/05:30am 11.7 - - - - NNE 4 9 2 5 - - 0.0
26/05:00am 11.9 - - - - E 2 4 1 2 - - 0.0
26/04:30am 12.1 - - - - NW 2 7 1 4 - - 0.0
26/04:00am 11.8 - - - - WSW 2 6 1 3 - - 0.0
26/03:30am 12.1 - - - - CALM 0 0 0 0 - - 0.0
26/03:00am 11.8 - - - - SSE 4 6 2 3 - - 0.0
26/02:30am 11.8 - - - - S 4 6 2 3 - - 0.0
26/02:00am 12.0 - - - - CALM 0 0 0 0 - - 0.0
26/01:30am 12.0 - - - - CALM 0 0 0 0 - - 0.0
26/01:00am 11.9 - - - - CALM 0 0 0 0 - - 0.0
26/12:30am 12.0 - - - - CALM 0 0 0 0 - - 0.0
26/12:00am 11.8 - - - - CALM 0 0 0 0 - - 0.0
 
Date/Time
EST
Tmp

°C
App
Tmp
°C
Dew
Point
°C
Rel
Hum
%
Delta-T

°C
Wind Press
QNH
hPa
Press
MSL
hPa
Rain
since
9 am
mm
Dir
 
Spd
km/h
Gust
km/h
Spd
kts
Gust
kts
25/11:30pm 11.9 - - - - CALM 0 0 0 0 - - 0.0
25/11:00pm 11.7 - - - - SSW 6 7 3 4 - - 0.0
25/10:30pm 11.8 - - - - WNW 2 4 1 2 - - 0.0
25/10:00pm 11.6 - - - - SSE 2 4 1 2 - - 0.0
25/09:30pm 11.8 - - - - WSW 2 4 1 2 - - 0.0
25/09:00pm 12.3 - - - - SW 2 4 1 2 - - 0.0
25/08:30pm 12.4 - - - - ESE 6 7 3 4 - - 0.0
25/08:00pm 12.7 - - - - SW 4 4 2 2 - - 0.0
25/07:30pm 12.9 - - - - WNW 2 4 1 2 - - 0.0
25/07:00pm 13.1 - - - - WSW 4 6 2 3 - - 0.0
25/06:30pm 12.9 - - - - SSW 2 4 1 2 - - 0.0
25/06:00pm 14.0 - - - - CALM 0 0 0 0 - - 0.0
25/05:30pm 14.8 - - - - CALM 0 4 0 2 - - 0.0
25/05:00pm 14.1 - - - - WSW 6 7 3 4 - - 0.0
25/04:30pm 16.8 - - - - SW 6 7 3 4 - - 0.0
25/04:00pm 18.7 - - - - WSW 6 7 3 4 - - 0.0
25/03:30pm 19.9 - - - - WSW 6 6 3 3 - - 0.0
25/03:00pm 19.5 - - - - WSW 4 6 2 3 - - 0.0
25/02:30pm 20.4 - - - - NNW 4 6 2 3 - - 0.0
25/02:00pm 20.1 - - - - NW 6 9 3 5 - - 0.0
25/01:30pm 20.0 - - - - NNW 2 6 1 3 - - 0.0
25/01:00pm 18.6 - - - - NE 6 13 3 7 - - 0.0
25/12:30pm 18.1 - - - - NE 7 11 4 6 - - 0.0
25/12:00pm 17.1 - - - - NNW 7 11 4 6 - - 0.0
25/11:30am 16.4 - - - - NNW 6 11 3 6 - - 0.0
25/11:00am 15.6 - - - - NE 9 13 5 7 - - 0.0
25/10:30am 14.7 - - - - NNW 4 7 2 4 - - 0.0
25/10:00am 13.3 - - - - N 4 7 2 4 - - 0.0
25/09:30am 12.3 - - - - NE 2 4 1 2 - - 0.0
25/09:00am 10.0 - - - - NNW 4 6 2 3 - - 0.0
25/08:30am 8.2 - - - - S 2 4 1 2 - - 0.0
25/08:00am 6.4 - - - - SSW 4 6 2 3 - - 0.0
25/07:30am 4.9 - - - - S 4 6 2 3 - - 0.0
25/07:00am 4.9 - - - - CALM 0 0 0 0 - - 0.0
25/06:30am 5.0 - - - - SE 2 2 1 1 - - 0.0
25/06:00am 5.3 - - - - W 4 4 2 2 - - 0.0
25/05:30am 5.6 - - - - CALM 0 0 0 0 - - 0.0
25/05:00am 5.8 - - - - CALM 0 2 0 1 - - 0.0
25/04:30am 6.2 - - - - CALM 0 0 0 0 - - 0.0
25/04:00am 6.1 - - - - NW 2 2 1 1 - - 0.0
25/03:30am 6.4 - - - - S 2 6 1 3 - - 0.0
25/03:00am 7.1 - - - - S 2 4 1 2 - - 0.0
25/02:30am 7.0 - - - - S 2 4 1 2 - - 0.0
25/02:00am 7.1 - - - - CALM 0 0 0 0 - - 0.0
25/01:30am 7.7 - - - - CALM 0 0 0 0 - - 0.0
25/01:00am 8.6 - - - - WSW 2 4 1 2 - - 0.0
25/12:30am 8.5 - - - - SW 2 4 1 2 - - 0.0
25/12:00am 9.1 - - - - CALM 0 0 0 0 - - 0.0
 
Date/Time
EST
Tmp

°C
App
Tmp
°C
Dew
Point
°C
Rel
Hum
%
Delta-T

°C
Wind Press
QNH
hPa
Press
MSL
hPa
Rain
since
9 am
mm
Dir
 
Spd
km/h
Gust
km/h
Spd
kts
Gust
kts
24/11:30pm 9.4 - - - - ESE 4 6 2 3 - - 0.0
24/11:00pm 9.9 - - - - W 2 6 1 3 - - 0.0
24/10:30pm 10.4 - - - - CALM 0 4 0 2 - - 0.0

Latest Capital City Observations: Canberra | Sydney | Melbourne | Brisbane | Adelaide | Perth | Hobart | Darwin

Other Formats:

Comma delimited format used in spreadsheet applications
http://www.bom.gov.au/fwo/IDN60901/IDN60901.94763.axf

JavaScript Object Notation format (JSON) in row-major order
http://www.bom.gov.au/fwo/IDN60901/IDN60901.94763.json